createdAt,value
2019-02-16T00:02:27.192Z,13.25
2019-02-16T00:04:54.576Z,14.73
2019-02-16T00:07:21.960Z,18.02
2019-02-16T00:09:49.347Z,15.50
2019-02-16T00:12:16.694Z,15.45
2019-02-16T00:14:44.098Z,14.83
2019-02-16T00:17:11.437Z,13.78
2019-02-16T00:19:38.870Z,13.30
2019-02-16T00:22:06.538Z,18.73
2019-02-16T00:24:33.948Z,14.13
2019-02-16T00:27:01.290Z,15.78
2019-02-16T00:29:28.656Z,14.40
2019-02-16T00:31:56.035Z,16.93
2019-02-16T00:34:23.388Z,17.90
2019-02-16T00:36:50.638Z,14.95
2019-02-16T00:39:17.976Z,18.48
2019-02-16T00:41:45.258Z,16.25
2019-02-16T00:44:12.597Z,14.83
2019-02-16T00:46:39.956Z,16.57
2019-02-16T00:49:07.361Z,18.55
2019-02-16T00:51:34.700Z,16.23
2019-02-16T00:54:02.097Z,15.95
2019-02-16T00:56:29.520Z,17.12
2019-02-16T00:58:56.887Z,18.73
2019-02-16T01:01:24.234Z,18.98
2019-02-16T01:03:51.632Z,14.78
2019-02-16T01:06:18.987Z,14.85
2019-02-16T01:08:46.320Z,14.50
2019-02-16T01:11:13.538Z,14.80
2019-02-16T01:13:40.951Z,16.17
2019-02-16T01:16:08.201Z,15.65
2019-02-16T01:18:35.456Z,15.28
2019-02-16T01:21:02.893Z,15.32
2019-02-16T01:23:30.237Z,15.88
2019-02-16T01:25:57.629Z,17.15
2019-02-16T01:28:25.008Z,12.63
2019-02-16T01:30:52.398Z,13.15
2019-02-16T01:33:19.741Z,16.48
2019-02-16T01:35:47.025Z,14.05
2019-02-16T01:38:14.159Z,13.50
2019-02-16T01:40:41.541Z,13.25
2019-02-16T01:43:08.884Z,13.05
2019-02-16T01:45:36.305Z,13.62
2019-02-16T01:48:03.559Z,11.57
2019-02-16T01:50:30.762Z,13.83
2019-02-16T01:52:57.979Z,10.65
2019-02-16T01:55:25.383Z,12.20
2019-02-16T01:57:52.746Z,12.82
2019-02-16T02:00:20.112Z,12.45
2019-02-16T02:02:47.529Z,10.05
2019-02-16T02:05:14.834Z,12.37
2019-02-16T02:07:42.183Z,10.10
2019-02-16T02:10:09.566Z,10.82
2019-02-16T02:12:36.929Z,10.80
2019-02-16T02:15:05.044Z,14.03
2019-02-16T02:17:32.422Z,13.50
2019-02-16T02:19:59.936Z,10.53
2019-02-16T02:22:27.198Z,15.15
2019-02-16T02:24:54.597Z,13.83
2019-02-16T02:27:22.250Z,11.12
2019-02-16T02:29:49.670Z,10.60
2019-02-16T02:32:16.844Z,11.10
2019-02-16T02:34:44.110Z,12.28
2019-02-16T02:37:12.632Z,11.75
2019-02-16T02:39:39.915Z,12.90
2019-02-16T02:42:07.320Z,15.60
2019-02-16T02:44:34.660Z,9.95
2019-02-16T02:47:02.007Z,10.45
2019-02-16T02:49:29.408Z,10.98
2019-02-16T02:51:56.810Z,18.40
2019-02-16T02:54:24.175Z,15.10
2019-02-16T02:56:51.327Z,18.30
2019-02-16T02:59:18.696Z,18.23
2019-02-16T03:01:46.049Z,18.10
2019-02-16T03:04:13.306Z,17.10
2019-02-16T03:06:40.714Z,16.05
2019-02-16T03:09:07.878Z,13.50
2019-02-16T03:11:36.520Z,12.85
2019-02-16T03:14:03.892Z,12.45
2019-02-16T03:16:31.278Z,13.72
2019-02-16T03:18:58.710Z,13.32
2019-02-16T03:21:26.149Z,10.85
2019-02-16T03:23:53.510Z,11.15
2019-02-16T03:26:55.118Z,11.50
2019-02-16T03:29:51.851Z,10.15
2019-02-16T03:33:16.311Z,11.12
2019-02-16T03:36:46.804Z,10.35
2019-02-16T03:39:20.285Z,9.25
2019-02-16T03:41:47.654Z,11.25
2019-02-16T03:44:14.996Z,11.63
2019-02-16T03:46:42.203Z,11.90
2019-02-16T03:49:09.569Z,9.98
2019-02-16T03:51:36.708Z,10.23
2019-02-16T03:54:03.966Z,10.30
2019-02-16T03:56:31.346Z,9.90
2019-02-16T03:58:58.754Z,9.33
2019-02-16T04:01:26.141Z,9.05
2019-02-16T04:03:53.471Z,8.80
2019-02-16T04:06:20.780Z,10.50
2019-02-16T04:08:48.123Z,10.70
2019-02-16T04:11:15.539Z,9.23
2019-02-16T04:13:42.880Z,9.08
2019-02-16T04:16:10.233Z,7.58
2019-02-16T04:18:37.575Z,11.28
2019-02-16T04:21:05.011Z,10.50
2019-02-16T04:23:32.340Z,9.83
2019-02-16T04:25:59.687Z,10.70
2019-02-16T04:28:27.110Z,9.38
2019-02-16T04:30:54.348Z,9.85
2019-02-16T04:33:21.541Z,9.38
2019-02-16T04:35:48.858Z,11.45
2019-02-16T04:38:17.671Z,9.40
2019-02-16T04:40:44.994Z,10.50
2019-02-16T04:43:12.381Z,11.10
2019-02-16T04:45:39.769Z,12.95
2019-02-16T04:48:07.140Z,12.37
2019-02-16T04:50:34.582Z,10.90
2019-02-16T04:53:01.839Z,10.93
2019-02-16T04:55:29.282Z,11.80
2019-02-16T04:57:56.528Z,13.60
2019-02-16T05:00:23.862Z,10.03
2019-02-16T05:02:51.212Z,10.70
2019-02-16T05:05:18.523Z,11.50
2019-02-16T05:07:45.902Z,12.18
2019-02-16T05:10:13.250Z,10.75
2019-02-16T05:12:40.642Z,10.72
2019-02-16T05:15:08.081Z,11.55
2019-02-16T05:17:35.530Z,11.28
2019-02-16T05:20:02.953Z,13.03
2019-02-16T05:22:30.345Z,15.70
2019-02-16T05:24:57.816Z,12.53
2019-02-16T05:27:25.214Z,13.03
2019-02-16T05:29:52.561Z,13.10
2019-02-16T05:32:19.927Z,14.35
2019-02-16T05:34:47.224Z,13.90
2019-02-16T05:37:14.357Z,13.85
2019-02-16T05:39:41.523Z,15.05
2019-02-16T05:42:08.955Z,11.90
2019-02-16T05:44:36.313Z,12.93
2019-02-16T05:47:03.663Z,12.85
2019-02-16T05:49:30.990Z,11.57
2019-02-16T05:51:58.393Z,15.28
2019-02-16T05:54:25.745Z,13.18
2019-02-16T05:56:53.098Z,14.80
2019-02-16T05:59:20.474Z,14.47
2019-02-16T06:01:54.092Z,13.95
2019-02-16T06:04:16.962Z,13.18
2019-02-16T06:06:44.340Z,15.88
2019-02-16T06:09:11.703Z,12.47
2019-02-16T06:11:38.858Z,13.88
2019-02-16T06:14:06.214Z,14.45
2019-02-16T06:16:33.646Z,16.17
2019-02-16T06:19:01.062Z,13.50
2019-02-16T06:21:28.464Z,13.68
2019-02-16T06:23:55.765Z,12.75
2019-02-16T06:26:23.191Z,14.10
2019-02-16T06:28:50.499Z,13.93
2019-02-16T06:31:17.863Z,15.43
2019-02-16T06:33:45.325Z,16.15
2019-02-16T06:36:23.185Z,13.75
2019-02-16T06:38:50.487Z,11.95
2019-02-16T06:41:17.986Z,14.20
2019-02-16T06:43:45.384Z,15.65
2019-02-16T06:46:12.667Z,13.18
2019-02-16T06:48:40.043Z,13.85
2019-02-16T06:51:07.344Z,14.40
2019-02-16T06:53:34.801Z,12.23
2019-02-16T06:56:15.897Z,14.53
2019-02-16T06:58:43.283Z,12.40
2019-02-16T07:01:10.634Z,16.30
2019-02-16T07:03:38.890Z,15.72
2019-02-16T07:06:06.028Z,13.93
2019-02-16T07:08:33.370Z,12.13
2019-02-16T07:11:00.692Z,15.05
2019-02-16T07:13:28.155Z,11.68
2019-02-16T07:16:13.975Z,13.43
2019-02-16T07:18:46.218Z,16.60
2019-02-16T07:21:13.685Z,14.13
2019-02-16T07:23:41.050Z,15.03
2019-02-16T07:26:08.470Z,15.03
2019-02-16T07:28:35.840Z,13.78
2019-02-16T07:31:03.294Z,22.45
2019-02-16T07:33:30.734Z,16.67
2019-02-16T07:35:58.141Z,17.40
2019-02-16T07:38:25.545Z,14.13
2019-02-16T07:40:52.951Z,13.32
2019-02-16T07:43:42.437Z,15.30
2019-02-16T07:46:16.424Z,15.83
2019-02-16T07:48:50.638Z,13.85
2019-02-16T07:51:55.558Z,15.05
2019-02-16T07:54:42.220Z,13.48
2019-02-16T07:57:32.044Z,15.63
2019-02-16T08:00:18.958Z,15.40
2019-02-16T08:02:58.498Z,14.85
2019-02-16T08:05:43.792Z,13.10
2019-02-16T08:08:21.093Z,14.83
2019-02-16T08:11:10.666Z,14.13
2019-02-16T08:13:47.832Z,18.32
2019-02-16T08:16:41.006Z,16.60
2019-02-16T08:19:26.456Z,17.98
2019-02-16T08:22:02.516Z,16.52
2019-02-16T08:24:58.747Z,20.12
2019-02-16T08:27:36.061Z,20.05
2019-02-16T08:30:23.306Z,20.70
2019-02-16T08:33:06.942Z,16.40
2019-02-16T08:35:52.196Z,18.07
2019-02-16T08:38:28.862Z,20.32
2019-02-16T08:41:07.979Z,24.92
2019-02-16T08:43:43.948Z,21.68
2019-02-16T08:46:27.817Z,20.90
2019-02-16T08:49:08.139Z,19.87
2019-02-16T08:51:57.436Z,21.42
2019-02-16T08:54:50.391Z,16.80
2019-02-16T08:57:35.242Z,21.52
2019-02-16T09:00:19.796Z,17.77
2019-02-16T09:03:09.489Z,22.67
2019-02-16T09:05:52.099Z,22.62
2019-02-16T09:08:45.200Z,22.50
2019-02-16T09:11:31.156Z,19.60
2019-02-16T09:14:13.007Z,26.05
2019-02-16T09:16:47.028Z,21.80
2019-02-16T09:19:32.886Z,22.82
2019-02-16T09:22:31.691Z,22.90
2019-02-16T09:25:24.888Z,22.15
2019-02-16T09:28:15.005Z,20.10
2019-02-16T09:30:56.858Z,19.62
2019-02-16T09:33:47.270Z,23.65
2019-02-16T09:36:32.614Z,20.32
2019-02-16T09:39:20.848Z,22.58
2019-02-16T09:42:07.837Z,22.48
2019-02-16T09:44:42.726Z,23.83
2019-02-16T09:47:28.076Z,26.33
2019-02-16T09:50:17.968Z,22.60
2019-02-16T09:53:04.900Z,24.23
2019-02-16T09:55:44.833Z,25.88
2019-02-16T09:58:34.739Z,23.18
2019-02-16T10:01:20.595Z,24.57
2019-02-16T10:03:59.491Z,25.02
2019-02-16T10:06:45.324Z,23.42
2019-02-16T10:09:30.996Z,22.95
2019-02-16T10:12:17.914Z,20.88
2019-02-16T10:14:56.961Z,23.92
2019-02-16T10:17:52.411Z,24.77
2019-02-16T10:20:46.461Z,24.10
2019-02-16T10:23:20.751Z,24.35
2019-02-16T10:25:55.905Z,24.72
2019-02-16T10:28:35.522Z,25.27
2019-02-16T10:31:17.859Z,26.17
2019-02-16T10:34:07.980Z,23.25
2019-02-16T10:37:15.146Z,22.42
2019-02-16T10:40:02.014Z,26.68
2019-02-16T10:42:52.138Z,27.52
2019-02-16T10:45:29.252Z,24.27
2019-02-16T10:48:02.334Z,22.30
2019-02-16T10:50:38.367Z,25.85
2019-02-16T10:53:31.451Z,24.30
2019-02-16T10:56:08.457Z,23.12
2019-02-16T10:58:51.987Z,23.25
2019-02-16T11:01:38.922Z,22.95
2019-02-16T11:04:25.836Z,27.30
2019-02-16T11:07:17.312Z,26.73
2019-02-16T11:09:49.836Z,23.00
2019-02-16T11:12:35.838Z,22.10
2019-02-16T11:15:22.527Z,23.65
2019-02-16T11:18:11.914Z,26.25
2019-02-16T11:21:16.857Z,22.37
2019-02-16T11:24:01.291Z,24.43
2019-02-16T11:26:42.824Z,23.77
2019-02-16T11:29:30.818Z,25.57
2019-02-16T11:32:23.759Z,23.47
2019-02-16T11:35:01.306Z,23.40
2019-02-16T11:37:34.789Z,23.85
2019-02-16T11:40:27.238Z,24.25
2019-02-16T11:43:17.093Z,21.07
2019-02-16T11:46:19.316Z,25.60
2019-02-16T11:48:57.414Z,25.75
2019-02-16T11:51:52.859Z,21.17
2019-02-16T11:54:45.695Z,22.13
2019-02-16T11:57:31.382Z,19.52
2019-02-16T12:00:24.211Z,25.00
2019-02-16T12:03:19.059Z,21.80
2019-02-16T12:05:52.509Z,22.85
2019-02-16T12:08:42.478Z,22.67
2019-02-16T12:11:25.789Z,22.37
2019-02-16T12:14:18.774Z,22.93
2019-02-16T12:17:24.703Z,27.25
2019-02-16T12:20:33.125Z,24.57
2019-02-16T12:23:13.541Z,23.18
2019-02-16T12:25:50.287Z,23.35
2019-02-16T12:28:35.048Z,25.32
2019-02-16T12:31:19.894Z,25.30
2019-02-16T12:34:12.844Z,22.52
2019-02-16T12:36:50.644Z,23.05
2019-02-16T12:39:54.996Z,24.25
2019-02-16T12:42:39.280Z,24.85
2019-02-16T12:45:21.731Z,22.50
2019-02-16T12:48:17.983Z,23.50
2019-02-16T12:51:04.878Z,19.55
2019-02-16T12:53:50.010Z,19.37
2019-02-16T12:56:26.410Z,19.35
2019-02-16T12:59:07.997Z,21.00
2019-02-16T13:02:00.181Z,20.88
2019-02-16T13:04:50.144Z,21.52
2019-02-16T13:07:34.804Z,21.40
2019-02-16T13:10:39.897Z,24.55
2019-02-16T13:13:26.886Z,24.47
2019-02-16T13:16:09.559Z,24.90
2019-02-16T13:18:46.231Z,23.57
2019-02-16T13:21:45.401Z,22.82
2019-02-16T13:24:24.421Z,24.90
2019-02-16T13:27:14.582Z,25.55
2019-02-16T13:29:59.398Z,26.12
2019-02-16T13:32:44.725Z,24.15
2019-02-16T13:35:20.223Z,25.45
2019-02-16T13:38:09.970Z,26.73
2019-02-16T13:40:56.838Z,25.68
2019-02-16T13:43:43.710Z,27.07
2019-02-16T13:46:27.295Z,27.95
2019-02-16T13:49:16.744Z,24.98
2019-02-16T13:52:06.187Z,26.95
2019-02-16T13:54:53.145Z,27.73
2019-02-16T13:57:45.791Z,24.32
2019-02-16T14:00:27.300Z,25.23
2019-02-16T14:03:05.894Z,22.52
2019-02-16T14:05:42.082Z,26.97
2019-02-16T14:08:27.992Z,27.37
2019-02-16T14:11:14.387Z,25.95
2019-02-16T14:14:07.324Z,26.50
2019-02-16T14:16:44.058Z,21.60
2019-02-16T14:19:11.358Z,25.82
2019-02-16T14:21:38.841Z,24.18
2019-02-16T14:24:06.354Z,32.17
2019-02-16T14:26:33.785Z,23.55
2019-02-16T14:29:01.234Z,24.65
2019-02-16T14:31:28.906Z,25.32
2019-02-16T14:33:57.268Z,24.07
2019-02-16T14:36:24.822Z,26.27
2019-02-16T14:38:57.470Z,26.85
2019-02-16T14:41:24.899Z,28.27
2019-02-16T14:43:52.374Z,23.07
2019-02-16T14:46:20.069Z,24.92
2019-02-16T14:48:47.390Z,26.02
2019-02-16T14:51:14.859Z,26.25
2019-02-16T14:53:42.423Z,28.38
2019-02-16T14:56:09.809Z,26.73
2019-02-16T14:58:37.198Z,27.07
2019-02-16T15:01:04.620Z,28.00
2019-02-16T15:03:32.044Z,27.80
2019-02-16T15:05:59.518Z,26.73
2019-02-16T15:08:26.991Z,27.25
2019-02-16T15:10:55.596Z,28.70
2019-02-16T15:13:23.959Z,26.45
2019-02-16T15:15:51.339Z,30.35
2019-02-16T15:18:18.794Z,25.82
2019-02-16T15:20:46.239Z,24.60
2019-02-16T15:23:13.765Z,28.07
2019-02-16T15:25:41.211Z,26.45
2019-02-16T15:28:08.755Z,25.60
2019-02-16T15:30:37.436Z,28.77
2019-02-16T15:33:04.874Z,34.58
2019-02-16T15:35:32.413Z,26.10
2019-02-16T15:37:59.809Z,26.02
2019-02-16T15:40:27.194Z,29.40
2019-02-16T15:42:54.685Z,28.40
2019-02-16T15:45:22.041Z,23.90
2019-02-16T15:47:49.491Z,27.30
2019-02-16T15:50:16.972Z,23.25
2019-02-16T15:52:44.478Z,30.10
2019-02-16T15:55:11.975Z,27.13
2019-02-16T15:57:40.441Z,29.90
2019-02-16T16:00:13.772Z,29.57
2019-02-16T16:02:41.195Z,33.28
2019-02-16T16:05:09.804Z,29.40
2019-02-16T16:07:38.124Z,26.42
2019-02-16T16:10:18.638Z,32.48
2019-02-16T16:12:54.565Z,25.25
2019-02-16T16:15:44.139Z,26.25
2019-02-16T16:18:39.753Z,28.07
2019-02-16T16:21:16.500Z,28.02
2019-02-16T16:23:52.423Z,21.17
2019-02-16T16:26:29.053Z,25.80
2019-02-16T16:29:06.323Z,27.32
2019-02-16T16:32:11.451Z,39.75
2019-02-16T16:34:57.206Z,42.55
2019-02-16T16:37:43.592Z,42.67
2019-02-16T16:40:36.686Z,33.42
2019-02-16T16:43:26.651Z,33.80
2019-02-16T16:46:12.542Z,26.42
2019-02-16T16:49:09.587Z,22.95
2019-02-16T16:51:56.636Z,26.95
2019-02-16T16:54:42.483Z,32.53
2019-02-16T16:57:44.707Z,32.90
2019-02-16T17:00:30.634Z,31.65
2019-02-16T17:03:20.373Z,28.38
2019-02-16T17:05:55.906Z,25.82
2019-02-16T17:08:41.874Z,29.15
2019-02-16T17:11:31.701Z,32.25
2019-02-16T17:14:05.031Z,34.88
2019-02-16T17:16:50.981Z,32.70
2019-02-16T17:19:26.837Z,28.60
2019-02-16T17:22:11.735Z,28.70
2019-02-16T17:25:10.877Z,38.67
2019-02-16T17:27:49.145Z,33.38
2019-02-16T17:30:48.231Z,33.23
2019-02-16T17:33:35.543Z,30.43
2019-02-16T17:36:22.741Z,25.00
2019-02-16T17:39:05.877Z,29.98
2019-02-16T17:41:54.697Z,29.20
2019-02-16T17:44:40.489Z,29.48
2019-02-16T17:47:40.827Z,32.93
2019-02-16T17:50:30.734Z,37.78
2019-02-16T17:53:30.021Z,32.03
2019-02-16T17:56:15.355Z,34.18
2019-02-16T17:59:01.035Z,25.17
2019-02-16T18:01:48.837Z,31.48
2019-02-16T18:04:40.632Z,29.40
2019-02-16T18:07:15.628Z,35.28
2019-02-16T18:10:11.878Z,26.40
2019-02-16T18:12:56.542Z,32.53
2019-02-16T18:15:38.443Z,30.23
2019-02-16T18:18:15.228Z,32.42
2019-02-16T18:20:53.697Z,32.13
2019-02-16T18:23:35.837Z,32.35
2019-02-16T18:26:13.205Z,32.60
2019-02-16T18:28:57.245Z,31.42
2019-02-16T18:31:58.596Z,28.95
2019-02-16T18:34:37.806Z,28.38
2019-02-16T18:37:24.651Z,24.15
2019-02-16T18:40:18.570Z,25.72
2019-02-16T18:43:00.228Z,28.12
2019-02-16T18:45:36.931Z,31.95
2019-02-16T18:48:30.151Z,34.55
2019-02-16T18:51:09.907Z,27.32
2019-02-16T18:53:46.399Z,30.10
2019-02-16T18:56:39.386Z,29.25
2019-02-16T18:59:30.071Z,30.48
2019-02-16T19:02:08.554Z,28.87
2019-02-16T19:04:53.925Z,27.45
2019-02-16T19:07:40.870Z,25.20
2019-02-16T19:10:26.710Z,36.98
2019-02-16T19:13:22.734Z,44.70
2019-02-16T19:16:28.378Z,40.28
2019-02-16T19:19:12.178Z,31.50
2019-02-16T19:21:52.747Z,26.62
2019-02-16T19:24:45.807Z,32.58
2019-02-16T19:27:26.535Z,25.55
2019-02-16T19:30:16.754Z,28.60
2019-02-16T19:33:09.999Z,25.15
2019-02-16T19:35:45.263Z,28.67
2019-02-16T19:38:30.985Z,27.98
2019-02-16T19:41:08.047Z,28.92
2019-02-16T19:43:50.233Z,26.50
2019-02-16T19:46:46.659Z,39.85
2019-02-16T19:49:36.832Z,33.70
2019-02-16T19:52:35.643Z,38.23
2019-02-16T19:55:12.291Z,42.62
2019-02-16T19:57:58.390Z,56.60
2019-02-16T20:00:43.684Z,56.70
2019-02-16T20:03:29.688Z,54.45
2019-02-16T20:06:28.852Z,57.67
2019-02-16T20:09:14.005Z,40.15
2019-02-16T20:11:59.271Z,42.00
2019-02-16T20:14:40.795Z,34.48
2019-02-16T20:17:25.958Z,40.17
2019-02-16T20:20:18.780Z,34.33
2019-02-16T20:23:04.640Z,30.55
2019-02-16T20:26:03.430Z,32.60
2019-02-16T20:28:50.621Z,30.23
2019-02-16T20:31:41.721Z,26.68
2019-02-16T20:34:24.806Z,28.62
2019-02-16T20:37:00.790Z,29.80
2019-02-16T20:39:46.527Z,30.45
2019-02-16T20:42:45.713Z,31.93
2019-02-16T20:45:21.578Z,27.67
2019-02-16T20:47:56.941Z,28.83
2019-02-16T20:50:43.922Z,31.27
2019-02-16T20:53:26.551Z,31.05
2019-02-16T20:56:02.062Z,26.05
2019-02-16T20:58:41.909Z,36.10
2019-02-16T21:01:28.876Z,27.52
2019-02-16T21:04:14.879Z,28.73
2019-02-16T21:07:00.325Z,24.12
2019-02-16T21:09:45.890Z,26.45
2019-02-16T21:12:35.892Z,24.05
2019-02-16T21:15:21.634Z,36.77
2019-02-16T21:18:06.876Z,33.30
2019-02-16T21:20:50.966Z,33.78
2019-02-16T21:23:36.182Z,35.30
2019-02-16T21:26:39.782Z,27.93
2019-02-16T21:29:33.158Z,30.30
2019-02-16T21:32:23.140Z,25.43
2019-02-16T21:35:09.106Z,25.75
2019-02-16T21:38:14.438Z,28.12
2019-02-16T21:41:19.263Z,25.12
2019-02-16T21:44:03.081Z,26.33
2019-02-16T21:46:59.092Z,31.55
2019-02-16T21:49:49.039Z,28.50
2019-02-16T21:52:40.573Z,28.57
2019-02-16T21:55:16.555Z,28.27
2019-02-16T21:57:54.062Z,22.85
2019-02-16T22:00:35.416Z,27.13
2019-02-16T22:03:18.062Z,22.17
2019-02-16T22:06:14.116Z,24.02
2019-02-16T22:09:03.887Z,23.83
2019-02-16T22:12:02.051Z,27.98
2019-02-16T22:14:29.523Z,24.87
2019-02-16T22:16:56.894Z,23.30
2019-02-16T22:19:24.314Z,20.68
2019-02-16T22:21:51.723Z,21.75
2019-02-16T22:24:19.225Z,19.48
2019-02-16T22:26:46.833Z,21.73
2019-02-16T22:29:14.283Z,19.65
2019-02-16T22:31:41.592Z,20.88
2019-02-16T22:34:08.814Z,21.62
2019-02-16T22:36:36.151Z,21.62
2019-02-16T22:39:04.516Z,22.50
2019-02-16T22:41:33.078Z,19.32
2019-02-16T22:44:02.355Z,23.98
2019-02-16T22:46:30.033Z,23.62
2019-02-16T22:48:57.556Z,19.50
2019-02-16T22:51:24.943Z,21.87
2019-02-16T22:53:52.376Z,21.02
2019-02-16T22:56:19.823Z,21.10
2019-02-16T22:58:47.219Z,21.52
2019-02-16T23:01:14.636Z,25.88
2019-02-16T23:03:42.242Z,24.95
2019-02-16T23:06:09.784Z,21.10
2019-02-16T23:08:37.266Z,22.40
2019-02-16T23:11:04.585Z,22.40
2019-02-16T23:13:32.019Z,17.90
2019-02-16T23:15:59.470Z,20.72
2019-02-16T23:18:26.863Z,24.32
2019-02-16T23:20:54.309Z,23.25
2019-02-16T23:23:22.799Z,21.02
2019-02-16T23:25:50.193Z,23.50
2019-02-16T23:28:17.807Z,23.12
2019-02-16T23:30:45.374Z,22.25
2019-02-16T23:33:12.848Z,27.67
2019-02-16T23:35:40.238Z,26.00
2019-02-16T23:38:07.654Z,21.65
2019-02-16T23:40:36.261Z,24.20
2019-02-16T23:43:03.803Z,22.15
2019-02-16T23:45:31.305Z,27.00
2019-02-16T23:47:58.707Z,22.00
2019-02-16T23:50:26.153Z,22.58
2019-02-16T23:52:53.523Z,23.77
2019-02-16T23:55:20.959Z,23.27
2019-02-16T23:57:48.506Z,21.35
